Time;durP1;ratioP1;P1;durP2;ratioP2;P2;SDS_P1;SDS_P2;PMS_P1;PMS_P2;Temp;Humidity;BMP_temperature;BMP_pressure;BME280_temperature;BME280_humidity;BME280_pressure;Samples;Min_cycle;Max_cycle;Signal;HPM_P1;HPM_P2
2023/12/31 00:02:16;;;;;;;44.47;30.50;;;9.90;99.90;;;;;;6306947;22;20117;-77
2023/12/31 00:04:42;;;;;;;44.57;30.83;;;9.90;99.90;;;;;;6308545;22;20042;-75
2023/12/31 00:07:08;;;;;;;44.72;32.00;;;10.00;99.90;;;;;;6308183;22;20006;-76
2023/12/31 00:09:34;;;;;;;42.55;31.23;;;10.00;99.90;;;;;;6308210;22;20456;-75
2023/12/31 00:12:00;;;;;;;43.70;30.10;;;9.90;99.90;;;;;;6308044;22;20007;-77
2023/12/31 00:14:25;;;;;;;44.43;30.23;;;10.00;99.90;;;;;;6308562;22;20006;-77
2023/12/31 00:16:51;;;;;;;40.73;28.73;;;10.00;99.90;;;;;;6309062;22;20437;-76
2023/12/31 00:19:17;;;;;;;39.40;29.37;;;9.90;99.90;;;;;;6308978;22;20441;-77
2023/12/31 00:21:43;;;;;;;38.75;27.60;;;9.90;99.90;;;;;;6309421;22;20176;-76
2023/12/31 00:24:25;;;;;;;;;;;;;;;;;;;;;
2023/12/31 00:31:04;;;;;;;;;;;;;;;;;;;;;
2023/12/31 00:43:41;;;;;;;37.70;26.08;;;9.90;99.90;;;;;;5980934;23;20020;-74
2023/12/31 00:49:42;;;;;;;35.60;27.13;;;9.90;99.90;;;;;;6009249;23;20055;-75
2023/12/31 00:52:08;;;;;;;35.77;25.93;;;9.90;99.90;;;;;;6023081;23;20026;-74
2023/12/31 00:54:34;;;;;;;44.10;28.13;;;9.90;99.90;;;;;;6244602;22;20409;-75
2023/12/31 00:57:00;;;;;;;37.37;27.30;;;9.90;99.90;;;;;;6308155;22;19999;-75
2023/12/31 00:59:26;;;;;;;40.53;28.30;;;9.90;99.90;;;;;;6308349;22;20023;-73
2023/12/31 01:01:53;;;;;;;41.93;28.90;;;9.90;99.90;;;;;;6308094;22;20030;-76
2023/12/31 01:04:19;;;;;;;42.70;31.00;;;9.80;99.90;;;;;;6308387;22;20026;-76
2023/12/31 01:06:45;;;;;;;49.33;34.23;;;9.80;99.90;;;;;;6280178;22;20433;-77
2023/12/31 01:09:11;;;;;;;44.47;32.90;;;9.80;99.90;;;;;;6307429;22;20017;-72
2023/12/31 01:11:36;;;;;;;46.53;33.00;;;9.90;99.90;;;;;;6280239;22;20019;-75
2023/12/31 01:14:02;;;;;;;46.23;34.47;;;9.90;99.90;;;;;;6307467;22;20014;-76
2023/12/31 01:16:28;;;;;;;50.92;36.17;;;9.90;99.90;;;;;;6307366;22;20003;-77
2023/12/31 01:18:54;;;;;;;49.60;36.73;;;9.90;99.90;;;;;;6307295;22;20000;-77
2023/12/31 01:21:20;;;;;;;57.73;41.67;;;9.90;99.90;;;;;;6307806;22;20003;-73
2023/12/31 01:23:45;;;;;;;64.63;43.37;;;9.80;99.90;;;;;;6307779;22;19999;-75
2023/12/31 01:26:11;;;;;;;61.70;43.20;;;9.90;99.90;;;;;;6307442;22;20010;-75
2023/12/31 01:28:37;;;;;;;54.25;40.35;;;9.90;99.90;;;;;;6307622;22;20003;-76
2023/12/31 01:31:03;;;;;;;61.33;42.53;;;9.90;99.90;;;;;;6307758;22;20011;-76
2023/12/31 01:33:28;;;;;;;65.13;46.23;;;9.90;99.90;;;;;;6307232;22;19995;-75
2023/12/31 01:35:54;;;;;;;63.17;44.80;;;9.80;99.90;;;;;;6307464;22;20028;-76
2023/12/31 01:38:20;;;;;;;57.50;41.53;;;9.80;99.90;;;;;;6280604;22;20011;-74
2023/12/31 01:40:55;;;;;;;62.85;43.75;;;9.90;99.90;;;;;;6307533;22;20003;-76
2023/12/31 01:43:23;;;;;;;64.78;44.88;;;9.90;99.90;;;;;;6307064;22;19996;-73
2023/12/31 01:45:49;;;;;;;63.13;45.63;;;9.90;99.90;;;;;;6307580;22;20039;-76
2023/12/31 01:48:15;;;;;;;66.10;45.30;;;9.90;99.90;;;;;;6308135;22;20000;-76
2023/12/31 01:50:42;;;;;;;67.00;46.23;;;9.90;99.90;;;;;;6280538;22;20015;-76
2023/12/31 01:53:08;;;;;;;62.17;47.20;;;9.90;99.90;;;;;;6307897;22;20129;-76
2023/12/31 01:55:34;;;;;;;63.43;47.13;;;9.90;99.90;;;;;;6307867;22;19995;-76
2023/12/31 02:01:56;;;;;;;74.87;50.73;;;9.90;99.90;;;;;;6209223;23;20008;-76
2023/12/31 02:04:59;;;;;;;70.00;50.37;;;9.90;99.90;;;;;;6210007;23;20339;-77
2023/12/31 02:21:38;;;;;;;64.77;47.07;;;9.90;99.90;;;;;;6182278;23;20542;-76
2023/12/31 02:24:04;;;;;;;72.30;49.80;;;9.80;99.90;;;;;;6182498;23;20029;-76
2023/12/31 02:26:33;;;;;;;77.50;52.90;;;9.90;99.90;;;;;;6267720;22;20370;-75
2023/12/31 02:28:58;;;;;;;78.33;54.27;;;9.80;99.90;;;;;;6274805;22;20007;-75
2023/12/31 02:31:24;;;;;;;79.40;54.03;;;9.80;99.90;;;;;;6276563;22;20418;-77
2023/12/31 02:33:50;;;;;;;72.20;51.67;;;9.80;99.90;;;;;;6275762;22;19999;-75
2023/12/31 02:36:16;;;;;;;71.87;51.17;;;9.80;99.90;;;;;;6275546;22;20043;-76
2023/12/31 02:38:42;;;;;;;78.07;57.03;;;9.80;99.90;;;;;;6275367;22;20004;-76
2023/12/31 02:41:07;;;;;;;85.37;57.40;;;9.80;99.90;;;;;;6275479;22;20014;-75
2023/12/31 02:43:33;;;;;;;78.73;55.97;;;9.90;99.90;;;;;;6275780;22;20026;-76
2023/12/31 02:45:59;;;;;;;79.97;58.33;;;9.80;99.90;;;;;;6275796;22;20077;-76
2023/12/31 02:48:25;;;;;;;87.43;58.55;;;9.90;99.90;;;;;;6276556;22;19996;-76
2023/12/31 02:50:51;;;;;;;79.03;59.70;;;9.90;99.90;;;;;;6275941;22;20043;-75
2023/12/31 02:53:16;;;;;;;77.20;57.38;;;9.90;99.90;;;;;;6275908;22;19996;-77
2023/12/31 02:55:42;;;;;;;77.65;57.20;;;9.90;99.90;;;;;;6275850;22;20000;-75
2023/12/31 02:58:08;;;;;;;72.25;51.10;;;9.90;99.90;;;;;;6276078;22;20000;-76
2023/12/31 03:00:34;;;;;;;53.03;36.80;;;9.90;99.90;;;;;;6248641;22;20057;-76
2023/12/31 03:03:00;;;;;;;42.72;32.17;;;9.90;99.90;;;;;;6276188;22;20004;-75
2023/12/31 03:05:25;;;;;;;36.90;26.40;;;9.90;99.90;;;;;;6276080;22;20085;-75
2023/12/31 03:07:51;;;;;;;34.23;24.33;;;9.90;99.90;;;;;;6248929;22;19999;-74
2023/12/31 03:10:17;;;;;;;32.67;22.85;;;9.90;99.90;;;;;;6275930;22;20007;-75
2023/12/31 03:12:43;;;;;;;32.27;24.27;;;9.90;99.90;;;;;;6290623;22;20047;-74
2023/12/31 03:15:09;;;;;;;32.90;22.60;;;9.90;99.90;;;;;;6308347;22;20070;-75
2023/12/31 03:17:35;;;;;;;33.88;23.25;;;9.80;99.90;;;;;;6308753;22;20003;-76
2023/12/31 03:20:01;;;;;;;31.30;24.50;;;9.80;99.90;;;;;;6308992;22;20010;-76
2023/12/31 03:22:27;;;;;;;35.92;22.60;;;9.80;99.90;;;;;;6309390;22;20007;-75
2023/12/31 03:24:53;;;;;;;32.17;23.73;;;9.80;99.90;;;;;;6309416;22;20046;-76
2023/12/31 03:27:19;;;;;;;37.20;23.60;;;9.80;99.90;;;;;;6309489;22;19995;-74
2023/12/31 03:29:45;;;;;;;38.10;25.17;;;9.90;99.90;;;;;;6309616;22;20440;-76
2023/12/31 03:32:54;;;;;;;37.67;25.33;;;9.90;99.90;;;;;;6308302;22;20007;-73
2023/12/31 03:53:18;;;;;;;44.00;29.87;;;9.80;99.90;;;;;;6066344;23;20019;-74
2023/12/31 03:55:56;;;;;;;;;;;;;;;;;;;;;
2023/12/31 03:58:23;;;;;;;42.73;29.57;;;9.80;99.90;;;;;;6274365;22;20382;-74
2023/12/31 04:00:49;;;;;;;48.27;27.90;;;9.80;99.90;;;;;;6308636;22;20328;-76
2023/12/31 04:03:14;;;;;;;41.37;28.43;;;9.80;99.90;;;;;;6308587;22;20045;-75
2023/12/31 04:05:41;;;;;;;40.55;28.42;;;9.80;99.90;;;;;;6281117;22;20060;-76
2023/12/31 04:08:07;;;;;;;42.13;28.47;;;9.80;99.90;;;;;;6307925;22;20333;-75
2023/12/31 04:10:32;;;;;;;54.27;39.33;;;9.80;99.90;;;;;;6280770;22;20007;-73
2023/12/31 04:12:58;;;;;;;55.67;41.40;;;9.80;99.90;;;;;;6308374;22;20094;-76
2023/12/31 04:15:24;;;;;;;42.80;31.60;;;9.80;99.90;;;;;;6308565;22;19999;-76
2023/12/31 04:17:51;;;;;;;41.03;29.43;;;9.90;99.90;;;;;;6307645;22;20061;-74
2023/12/31 04:20:17;;;;;;;40.20;29.53;;;9.80;99.90;;;;;;6308193;22;20457;-75
2023/12/31 04:22:42;;;;;;;36.63;28.27;;;9.80;99.90;;;;;;6308016;22;19996;-73
2023/12/31 04:25:08;;;;;;;40.60;27.90;;;9.80;99.90;;;;;;6308020;22;20003;-75
2023/12/31 04:27:38;;;;;;;35.92;26.88;;;9.80;99.90;;;;;;6308009;22;20326;-76
2023/12/31 04:30:04;;;;;;;38.05;27.08;;;9.90;99.90;;;;;;6308208;22;20049;-74
2023/12/31 04:32:30;;;;;;;40.63;27.30;;;9.90;99.90;;;;;;6307825;22;20011;-76
2023/12/31 04:34:56;;;;;;;36.88;26.15;;;9.80;99.90;;;;;;6307695;22;20006;-76
2023/12/31 04:37:22;;;;;;;37.35;25.80;;;9.80;99.90;;;;;;6308047;22;20052;-76
2023/12/31 04:39:48;;;;;;;42.67;26.33;;;9.90;99.90;;;;;;6308029;22;20003;-76
2023/12/31 04:42:14;;;;;;;40.22;26.25;;;9.90;99.90;;;;;;6307825;22;20075;-76
2023/12/31 04:44:41;;;;;;;40.63;27.67;;;9.90;99.90;;;;;;6308052;22;19996;-73
2023/12/31 04:47:07;;;;;;;38.78;24.35;;;9.90;99.90;;;;;;6307481;22;19996;-75
2023/12/31 04:49:32;;;;;;;37.33;27.00;;;9.90;99.90;;;;;;6307737;22;20003;-76
2023/12/31 04:51:58;;;;;;;33.50;25.70;;;9.90;99.90;;;;;;6307595;22;20017;-76
2023/12/31 04:54:24;;;;;;;37.60;26.85;;;9.90;99.90;;;;;;6308222;22;19999;-76
2023/12/31 04:56:50;;;;;;;43.27;28.80;;;9.80;99.90;;;;;;6308692;22;20003;-74
2023/12/31 04:59:16;;;;;;;35.23;24.00;;;9.80;99.90;;;;;;6308271;22;20460;-77
2023/12/31 05:01:42;;;;;;;38.25;24.92;;;9.80;99.90;;;;;;6308505;22;19999;-76
2023/12/31 05:04:21;;;;;;;;;;;;;;;;;;;;;
2023/12/31 05:24:24;;;;;;;41.70;27.73;;;9.80;99.90;;;;;;6153321;23;20061;-77
2023/12/31 05:30:13;;;;;;;;;;;;;;;;;;;;;
2023/12/31 05:32:39;;;;;;;43.37;29.60;;;9.80;99.90;;;;;;6212713;23;20091;-70
2023/12/31 05:35:05;;;;;;;43.83;30.70;;;9.80;99.90;;;;;;6267661;22;20460;-67
2023/12/31 05:37:31;;;;;;;43.20;31.47;;;9.80;99.90;;;;;;6307389;22;20333;-70
2023/12/31 05:39:56;;;;;;;42.03;30.13;;;9.80;99.90;;;;;;6307296;22;20006;-70
2023/12/31 05:42:22;;;;;;;43.13;29.27;;;9.80;99.90;;;;;;6307247;22;19996;-71
2023/12/31 05:44:48;;;;;;;45.33;30.20;;;9.80;99.90;;;;;;6307627;22;20007;-73
2023/12/31 05:47:14;;;;;;;40.92;30.48;;;9.80;99.90;;;;;;6307701;22;20074;-72
2023/12/31 05:49:40;;;;;;;44.10;31.80;;;9.80;99.90;;;;;;6307299;22;20014;-71
2023/12/31 05:52:07;;;;;;;39.97;29.83;;;9.80;99.90;;;;;;6307473;22;20015;-74
2023/12/31 05:54:38;;;;;;;43.72;30.70;;;9.80;99.90;;;;;;6307137;22;20007;-71
2023/12/31 05:57:04;;;;;;;45.47;29.60;;;9.80;99.90;;;;;;6306200;22;20007;-73
2023/12/31 05:59:29;;;;;;;40.25;28.95;;;9.80;99.90;;;;;;6307535;22;20007;-72
2023/12/31 06:01:55;;;;;;;38.37;28.70;;;9.80;99.90;;;;;;6307548;22;20003;-70
2023/12/31 06:04:21;;;;;;;42.85;30.52;;;9.80;99.90;;;;;;6306828;22;20015;-69
2023/12/31 06:06:47;;;;;;;40.47;28.85;;;9.70;99.90;;;;;;6307022;22;20026;-70
2023/12/31 06:09:12;;;;;;;38.78;29.52;;;9.70;99.90;;;;;;6307324;22;20004;-69
2023/12/31 06:11:38;;;;;;;46.90;28.40;;;9.70;99.90;;;;;;6306781;22;20011;-69
2023/12/31 06:14:04;;;;;;;44.33;27.95;;;9.80;99.90;;;;;;6306979;22;20014;-73
2023/12/31 06:16:30;;;;;;;37.28;27.05;;;9.80;99.90;;;;;;6307280;22;20026;-70
2023/12/31 06:18:55;;;;;;;50.83;29.88;;;9.80;99.90;;;;;;6307174;22;19999;-70
2023/12/31 06:21:21;;;;;;;41.20;28.70;;;9.80;99.90;;;;;;6306958;22;20010;-69
2023/12/31 06:23:47;;;;;;;41.03;28.97;;;9.80;99.90;;;;;;6307266;22;20086;-72
2023/12/31 06:26:13;;;;;;;41.47;28.80;;;9.80;99.90;;;;;;6307248;22;20004;-70
2023/12/31 06:28:39;;;;;;;39.20;28.98;;;9.80;99.90;;;;;;6306714;22;20018;-71
2023/12/31 06:31:04;;;;;;;40.30;29.17;;;9.80;99.90;;;;;;6306634;22;20038;-69
2023/12/31 06:33:30;;;;;;;42.20;28.98;;;9.80;99.90;;;;;;6307414;22;20000;-71
2023/12/31 06:35:56;;;;;;;43.50;31.30;;;9.80;99.90;;;;;;6307398;22;20010;-73
2023/12/31 06:38:22;;;;;;;42.97;31.33;;;9.80;99.90;;;;;;6307565;22;20070;-71
2023/12/31 06:40:54;;;;;;;45.92;32.85;;;9.70;99.90;;;;;;6307548;22;20086;-76
2023/12/31 06:43:23;;;;;;;46.25;32.58;;;9.80;99.90;;;;;;6307661;22;20003;-71
2023/12/31 07:03:46;;;;;;;61.00;43.03;;;9.80;99.90;;;;;;5980285;24;20019;-70
2023/12/31 07:09:28;;;;;;;55.67;38.97;;;9.80;99.90;;;;;;6013502;23;20075;-66
2023/12/31 07:11:55;;;;;;;51.97;38.77;;;9.80;99.90;;;;;;6043694;23;20016;-66
2023/12/31 07:14:23;;;;;;;58.70;42.53;;;9.70;99.90;;;;;;6295454;22;20090;-66
2023/12/31 07:16:49;;;;;;;57.15;43.30;;;9.80;99.90;;;;;;6306823;22;20007;-67
2023/12/31 07:19:15;;;;;;;60.20;42.60;;;9.80;99.90;;;;;;6306694;22;20060;-68
2023/12/31 07:21:41;;;;;;;59.92;43.15;;;9.80;99.90;;;;;;6306793;22;20415;-69
2023/12/31 07:24:07;;;;;;;61.47;44.70;;;9.80;99.90;;;;;;6307135;22;20072;-68
2023/12/31 07:26:33;;;;;;;64.17;44.27;;;9.80;99.90;;;;;;6304830;22;20026;-69
2023/12/31 07:28:58;;;;;;;67.53;44.63;;;9.80;99.90;;;;;;6302945;22;20057;-69
2023/12/31 07:31:24;;;;;;;63.37;44.30;;;9.80;99.90;;;;;;6302569;22;20106;-69
2023/12/31 07:33:50;;;;;;;58.08;44.22;;;9.80;99.90;;;;;;6305087;22;20003;-69
2023/12/31 07:36:16;;;;;;;64.78;47.47;;;9.80;99.90;;;;;;6306356;22;20004;-71
2023/12/31 07:38:44;;;;;;;67.65;50.47;;;9.80;99.90;;;;;;6306456;22;20006;-69
2023/12/31 07:41:12;;;;;;;78.13;54.55;;;9.80;99.90;;;;;;6306026;22;20015;-69
2023/12/31 07:43:38;;;;;;;78.35;55.95;;;9.80;99.90;;;;;;6306195;22;20018;-69
2023/12/31 07:46:05;;;;;;;76.60;55.42;;;9.80;99.90;;;;;;6306946;22;20012;-70
2023/12/31 07:48:30;;;;;;;79.05;55.50;;;9.80;99.90;;;;;;6305951;22;20007;-79
2023/12/31 07:50:57;;;;;;;83.63;58.10;;;9.80;99.90;;;;;;6305243;22;20007;-72
2023/12/31 07:53:22;;;;;;;77.55;55.28;;;9.90;99.90;;;;;;6303037;22;20372;-76
2023/12/31 07:55:48;;;;;;;81.07;57.13;;;9.80;99.90;;;;;;6302986;22;20063;-76
2023/12/31 07:58:14;;;;;;;84.78;61.00;;;9.90;99.90;;;;;;6306009;22;20013;-75
2023/12/31 08:00:40;;;;;;;84.85;59.85;;;9.90;99.90;;;;;;6306540;22;19999;-76
2023/12/31 08:03:05;;;;;;;85.10;59.33;;;9.90;99.90;;;;;;6308459;22;20003;-74
2023/12/31 08:05:33;;;;;;;87.40;59.93;;;9.90;99.90;;;;;;6307951;22;20076;-76
2023/12/31 08:07:59;;;;;;;79.32;59.20;;;10.00;99.90;;;;;;6307873;22;20086;-68
2023/12/31 08:10:25;;;;;;;80.65;56.20;;;10.00;99.90;;;;;;6309252;22;20030;-68
2023/12/31 08:12:51;;;;;;;82.72;59.03;;;10.00;99.90;;;;;;6308936;22;20420;-66
2023/12/31 08:15:20;;;;;;;81.38;59.92;;;10.10;99.90;;;;;;6309202;22;20413;-65
2023/12/31 08:17:46;;;;;;;81.30;57.10;;;10.10;99.90;;;;;;6309232;22;20048;-66
2023/12/31 08:28:15;;;;;;;82.20;57.03;;;10.10;99.90;;;;;;6182710;23;20037;-66
2023/12/31 08:31:46;;;;;;;80.07;54.20;;;10.00;99.90;;;;;;6065424;23;20050;-66
2023/12/31 08:41:15;;;;;;;62.22;44.38;;;10.10;99.90;;;;;;5856748;24;20027;-66
2023/12/31 08:47:18;;;;;;;64.18;44.40;;;10.10;99.90;;;;;;5891783;24;20024;-66
2023/12/31 08:49:44;;;;;;;61.77;44.27;;;10.10;99.90;;;;;;6016019;23;20336;-66
2023/12/31 08:52:10;;;;;;;66.53;45.97;;;10.10;99.90;;;;;;6209971;22;20011;-66
2023/12/31 08:54:36;;;;;;;64.93;45.78;;;10.10;99.90;;;;;;6308089;22;20034;-66
2023/12/31 08:57:02;;;;;;;64.82;44.28;;;10.00;99.90;;;;;;6308367;22;20003;-66
2023/12/31 08:59:28;;;;;;;64.15;43.65;;;10.10;99.90;;;;;;6307876;22;19998;-67
2023/12/31 09:01:54;;;;;;;59.92;41.95;;;10.10;99.90;;;;;;6280479;22;20011;-68
2023/12/31 09:04:20;;;;;;;55.53;40.45;;;10.10;99.90;;;;;;6308381;22;20003;-67
2023/12/31 09:06:47;;;;;;;56.97;39.53;;;10.10;99.90;;;;;;6307902;22;19995;-66
2023/12/31 09:09:14;;;;;;;55.35;39.80;;;10.10;99.90;;;;;;6308132;22;20056;-67
2023/12/31 09:11:40;;;;;;;64.50;43.72;;;10.10;99.90;;;;;;6307723;22;20011;-66
2023/12/31 09:14:05;;;;;;;57.72;41.35;;;10.10;99.90;;;;;;6307867;22;20007;-67
2023/12/31 09:16:31;;;;;;;64.05;43.90;;;10.10;99.90;;;;;;6307931;22;20003;-67
2023/12/31 09:18:57;;;;;;;66.57;43.53;;;10.10;99.90;;;;;;6308355;22;20007;-67
2023/12/31 09:21:23;;;;;;;61.97;44.22;;;10.20;99.90;;;;;;6308217;22;20007;-67
2023/12/31 09:23:49;;;;;;;64.95;42.72;;;10.10;99.90;;;;;;6308132;22;20076;-67
2023/12/31 09:26:15;;;;;;;66.18;44.60;;;10.20;99.90;;;;;;6307534;22;20025;-68
2023/12/31 09:28:42;;;;;;;66.80;45.72;;;10.20;99.90;;;;;;6307845;22;20057;-67
2023/12/31 09:31:08;;;;;;;68.70;46.97;;;10.20;99.90;;;;;;6307524;22;20011;-66
2023/12/31 09:33:34;;;;;;;62.88;43.78;;;10.20;99.90;;;;;;6305134;22;20007;-66
2023/12/31 09:36:04;;;;;;;65.10;44.33;;;10.20;99.90;;;;;;6304510;22;20003;-66
2023/12/31 09:38:29;;;;;;;68.13;46.97;;;10.20;99.90;;;;;;6305881;22;20002;-66
2023/12/31 09:40:56;;;;;;;63.72;45.95;;;10.20;99.90;;;;;;6307557;22;19999;-66
2023/12/31 09:43:22;;;;;;;70.15;48.33;;;10.20;99.90;;;;;;6307689;22;20009;-66
2023/12/31 09:45:49;;;;;;;66.55;46.70;;;10.20;99.90;;;;;;6307826;22;20388;-66
2023/12/31 09:48:15;;;;;;;66.82;45.72;;;10.20;99.90;;;;;;6308150;22;20362;-66
2023/12/31 09:50:42;;;;;;;69.22;46.30;;;10.20;99.90;;;;;;6309098;22;20072;-66
2023/12/31 09:53:10;;;;;;;67.43;46.33;;;10.20;99.90;;;;;;6307851;22;20336;-66
2023/12/31 09:55:37;;;;;;;71.88;50.47;;;10.30;99.90;;;;;;6308369;22;20077;-66
2023/12/31 09:59:06;;;;;;;75.75;53.50;;;10.30;99.90;;;;;;6307015;22;20078;-66
2023/12/31 10:12:54;;;;;;;67.53;44.00;;;10.20;99.90;;;;;;6037063;23;20026;-66
2023/12/31 10:22:17;;;;;;;66.63;47.85;;;10.20;99.90;;;;;;6036896;23;20162;-66
2023/12/31 10:24:43;;;;;;;61.45;44.92;;;10.10;99.90;;;;;;6043650;23;20414;-66
2023/12/31 10:27:09;;;;;;;64.82;45.15;;;10.10;99.90;;;;;;6307248;22;20319;-66
2023/12/31 10:29:38;;;;;;;68.88;44.35;;;10.10;99.90;;;;;;6307105;22;20058;-66
2023/12/31 10:32:05;;;;;;;58.30;41.50;;;10.10;99.90;;;;;;6307025;22;20011;-66
2023/12/31 10:34:32;;;;;;;60.30;39.47;;;10.10;99.90;;;;;;6307040;22;20003;-66
2023/12/31 10:37:05;;;;;;;60.55;40.92;;;10.10;99.90;;;;;;6307291;22;20318;-66
2023/12/31 10:39:41;;;;;;;54.45;39.42;;;10.10;99.90;;;;;;6279883;22;20318;-66
2023/12/31 10:42:07;;;;;;;60.60;40.33;;;10.10;99.90;;;;;;6307232;22;20051;-66
2023/12/31 10:44:35;;;;;;;61.30;39.83;;;10.10;99.90;;;;;;6307307;22;20003;-67
2023/12/31 10:47:11;;;;;;;56.90;41.75;;;10.20;99.90;;;;;;6307033;22;20007;-67
2023/12/31 10:49:43;;;;;;;65.20;45.42;;;10.10;99.90;;;;;;6307165;22;20462;-66
2023/12/31 10:52:14;;;;;;;69.53;44.90;;;10.20;99.90;;;;;;6306902;22;20467;-66
2023/12/31 10:54:45;;;;;;;64.97;44.55;;;10.20;99.90;;;;;;6307488;22;20025;-66
2023/12/31 10:57:11;;;;;;;70.03;46.97;;;10.20;99.90;;;;;;6306944;22;19996;-66
2023/12/31 10:59:39;;;;;;;69.57;46.97;;;10.20;99.90;;;;;;6307167;22;20096;-66
2023/12/31 11:02:09;;;;;;;73.90;47.15;;;10.20;99.90;;;;;;6307040;22;19999;-73
2023/12/31 11:04:35;;;;;;;69.07;47.15;;;10.20;99.90;;;;;;6306970;22;19999;-73
2023/12/31 11:07:03;;;;;;;68.32;46.63;;;10.20;99.90;;;;;;6307217;22;19996;-74
2023/12/31 11:09:33;;;;;;;69.72;48.28;;;10.20;99.90;;;;;;6307171;22;20306;-74
2023/12/31 11:11:59;;;;;;;73.55;49.03;;;10.20;99.90;;;;;;6306660;22;20015;-74
2023/12/31 11:14:46;;;;;;;77.60;51.50;;;10.20;99.90;;;;;;6304346;22;20048;-66
2023/12/31 11:17:30;;;;;;;89.97;55.70;;;10.20;99.90;;;;;;6264741;22;20023;-65
2023/12/31 11:20:24;;;;;;;86.88;57.50;;;10.30;99.90;;;;;;6304628;22;20023;-71
2023/12/31 11:23:04;;;;;;;93.50;59.92;;;10.30;99.90;;;;;;6307071;22;19999;-66
2023/12/31 11:25:31;;;;;;;97.43;62.42;;;10.30;99.90;;;;;;6281453;22;20011;-66
2023/12/31 11:27:58;;;;;;;99.38;62.60;;;10.30;99.90;;;;;;6306526;22;20035;-66
2023/12/31 11:30:48;;;;;;;100.80;63.92;;;10.30;99.90;;;;;;6306405;22;20006;-66
2023/12/31 11:43:34;;;;;;;97.00;63.80;;;10.40;99.90;;;;;;6275478;22;20019;-68
2023/12/31 11:47:10;;;;;;;;;;;;;;;;;;;;;
2023/12/31 11:56:04;;;;;;;100.72;65.18;;;10.40;99.90;;;;;;6035115;22;20025;-68
2023/12/31 11:58:43;;;;;;;106.88;66.88;;;10.40;99.90;;;;;;6213983;23;20071;-68
2023/12/31 12:01:49;;;;;;;112.43;67.13;;;10.40;99.90;;;;;;6213099;23;20077;-68
2023/12/31 12:04:30;;;;;;;109.68;66.38;;;10.40;99.90;;;;;;6121224;23;20469;-68
2023/12/31 12:07:05;;;;;;;106.35;69.20;;;10.40;99.90;;;;;;6121762;23;20388;-67
2023/12/31 12:09:36;;;;;;;108.80;66.97;;;10.40;99.90;;;;;;6180901;23;20055;-67
2023/12/31 12:12:04;;;;;;;101.85;64.70;;;10.40;99.90;;;;;;6214134;23;20047;-68
2023/12/31 12:14:32;;;;;;;108.93;68.45;;;10.40;99.90;;;;;;6187907;23;20326;-67
2023/12/31 12:16:59;;;;;;;107.53;67.32;;;10.50;99.90;;;;;;6214537;23;20001;-68
2023/12/31 12:19:25;;;;;;;100.18;65.45;;;10.50;99.90;;;;;;6215182;23;20327;-68
2023/12/31 12:21:51;;;;;;;109.53;67.70;;;10.40;99.90;;;;;;6216573;23;20373;-68
2023/12/31 12:24:18;;;;;;;106.85;68.30;;;10.40;99.90;;;;;;6213214;23;20004;-68
2023/12/31 12:26:48;;;;;;;109.85;67.55;;;10.40;99.90;;;;;;6211885;23;20009;-68
2023/12/31 12:29:15;;;;;;;105.15;66.20;;;10.50;99.90;;;;;;6186466;23;20008;-68
2023/12/31 12:31:47;;;;;;;101.85;66.10;;;10.50;99.90;;;;;;6189242;23;20021;-68
2023/12/31 12:34:16;;;;;;;106.50;65.78;;;10.50;99.90;;;;;;6216413;23;19997;-68
2023/12/31 12:36:45;;;;;;;101.95;69.00;;;10.50;99.90;;;;;;6216477;23;20004;-68
2023/12/31 12:39:20;;;;;;;107.80;69.95;;;10.50;99.90;;;;;;6215856;23;20476;-68
2023/12/31 12:41:53;;;;;;;103.57;67.45;;;10.50;99.90;;;;;;6216424;23;20009;-68
2023/12/31 12:44:19;;;;;;;;;;;10.50;99.90;;;;;;6215337;23;20602;-68
2023/12/31 12:46:46;;;;;;;105.40;70.15;;;10.50;99.90;;;;;;6214800;23;19907;-68
2023/12/31 12:49:13;;;;;;;107.55;71.25;;;10.50;99.90;;;;;;6215926;23;20067;-68
2023/12/31 12:51:40;;;;;;;101.47;70.97;;;10.50;99.90;;;;;;6215828;23;20008;-69
2023/12/31 12:54:07;;;;;;;100.32;70.72;;;10.50;99.90;;;;;;6218697;23;19997;-69
2023/12/31 12:56:33;;;;;;;108.57;73.68;;;10.50;99.90;;;;;;6246236;23;20303;-70
2023/12/31 12:59:00;;;;;;;105.65;71.15;;;10.50;99.90;;;;;;6244980;23;19996;-69
2023/12/31 13:01:26;;;;;;;103.03;70.38;;;10.50;99.90;;;;;;6245957;23;20031;-69
2023/12/31 13:03:53;;;;;;;101.35;69.32;;;10.50;99.90;;;;;;6246273;23;20044;-68
2023/12/31 13:06:19;;;;;;;100.72;69.47;;;10.50;99.90;;;;;;6246482;23;20009;-68
2023/12/31 13:08:45;;;;;;;104.00;70.10;;;10.50;99.90;;;;;;6246087;23;20057;-68
2023/12/31 13:11:11;;;;;;;96.95;68.63;;;10.50;99.90;;;;;;6246802;23;20426;-67
2023/12/31 13:13:37;;;;;;;104.10;71.68;;;10.50;99.90;;;;;;6246600;23;20007;-67
2023/12/31 13:16:04;;;;;;;111.32;73.20;;;10.50;99.90;;;;;;6246490;23;20007;-68
2023/12/31 13:18:29;;;;;;;103.47;70.65;;;10.50;99.90;;;;;;6246534;23;20000;-67
2023/12/31 13:40:42;;;;;;;112.05;70.38;;;10.50;99.90;;;;;;6094950;23;20010;-70
2023/12/31 13:46:18;;;;;;;100.97;68.38;;;10.50;99.90;;;;;;6062647;23;20029;-71
2023/12/31 13:48:44;;;;;;;99.68;66.97;;;10.50;99.90;;;;;;6220892;23;20039;-70
2023/12/31 13:51:10;;;;;;;94.53;64.68;;;10.50;99.90;;;;;;6245738;23;20095;-70
2023/12/31 13:53:36;;;;;;;93.97;64.18;;;10.50;99.90;;;;;;6218423;23;20334;-71
2023/12/31 13:56:04;;;;;;;96.80;62.90;;;10.40;99.90;;;;;;6245185;23;20338;-70
2023/12/31 13:58:29;;;;;;;93.82;62.15;;;10.50;99.90;;;;;;6244573;23;20023;-70
2023/12/31 14:00:55;;;;;;;93.85;62.80;;;10.50;99.90;;;;;;6245481;23;20422;-70
2023/12/31 14:03:21;;;;;;;93.18;61.30;;;10.50;99.90;;;;;;6245226;23;19996;-67
2023/12/31 14:05:47;;;;;;;94.60;61.42;;;10.50;99.90;;;;;;6245118;23;20000;-68
2023/12/31 14:08:15;;;;;;;91.68;59.60;;;10.50;99.90;;;;;;6245453;23;20024;-67
2023/12/31 14:10:41;;;;;;;94.15;59.17;;;10.50;99.90;;;;;;6245422;23;20079;-67
2023/12/31 14:13:07;;;;;;;85.30;56.53;;;10.50;99.90;;;;;;6245309;23;20019;-67
2023/12/31 14:15:34;;;;;;;86.15;58.70;;;10.50;99.90;;;;;;6245480;23;20418;-69
2023/12/31 14:18:00;;;;;;;92.03;60.78;;;10.50;99.90;;;;;;6245232;23;20110;-69
2023/12/31 14:20:26;;;;;;;91.45;60.90;;;10.50;99.90;;;;;;6245639;23;20003;-70
2023/12/31 14:22:52;;;;;;;87.10;59.50;;;10.50;99.90;;;;;;6245854;23;20414;-68
2023/12/31 14:25:18;;;;;;;87.03;58.78;;;10.50;99.90;;;;;;6245445;23;20000;-68
2023/12/31 14:27:45;;;;;;;90.65;58.72;;;10.50;99.90;;;;;;6245598;23;20000;-68
2023/12/31 14:30:11;;;;;;;84.07;58.55;;;10.50;99.90;;;;;;6245599;23;20500;-70
2023/12/31 14:32:37;;;;;;;87.65;56.80;;;10.50;99.90;;;;;;6245165;23;20465;-70
2023/12/31 14:35:08;;;;;;;83.22;55.97;;;10.50;99.90;;;;;;6245231;23;19996;-70
2023/12/31 14:37:34;;;;;;;85.22;56.75;;;10.50;99.90;;;;;;6242994;23;20000;-70
2023/12/31 14:40:00;;;;;;;82.88;54.00;;;10.50;99.90;;;;;;6244760;23;20000;-68
2023/12/31 14:42:26;;;;;;;83.65;54.88;;;10.50;99.90;;;;;;6245151;23;20024;-67
2023/12/31 14:44:52;;;;;;;77.80;53.80;;;10.50;99.90;;;;;;6245090;23;20329;-70
2023/12/31 14:47:18;;;;;;;78.55;54.17;;;10.50;99.90;;;;;;6244578;23;20377;-70
2023/12/31 14:49:44;;;;;;;82.10;54.33;;;10.50;99.90;;;;;;6245533;23;20003;-70
2023/12/31 14:52:10;;;;;;;73.80;53.00;;;10.50;99.90;;;;;;6245260;23;20334;-70
2023/12/31 14:54:37;;;;;;;74.05;50.35;;;10.50;99.90;;;;;;6245627;23;20436;-70
2023/12/31 15:00:59;;;;;;;73.20;52.03;;;10.50;99.90;;;;;;6123242;23;20021;-70
2023/12/31 15:04:17;;;;;;;82.43;56.47;;;10.50;99.90;;;;;;5955757;24;20355;-70
2023/12/31 15:17:28;;;;;;;88.35;57.90;;;10.50;99.90;;;;;;6038958;23;20011;-70
2023/12/31 15:23:16;;;;;;;84.97;58.85;;;10.50;99.90;;;;;;6007480;23;20407;-70
2023/12/31 15:25:43;;;;;;;90.72;61.85;;;10.50;99.90;;;;;;6184034;23;20416;-68
2023/12/31 15:28:09;;;;;;;101.05;67.78;;;10.50;99.90;;;;;;6202884;23;20377;-67
2023/12/31 15:30:35;;;;;;;102.25;66.32;;;10.50;99.90;;;;;;6220129;23;20379;-70
2023/12/31 15:33:01;;;;;;;98.65;66.30;;;10.50;99.90;;;;;;6246962;23;20046;-71
2023/12/31 15:35:29;;;;;;;115.20;75.60;;;10.50;99.90;;;;;;6247207;23;20000;-70
2023/12/31 15:37:55;;;;;;;118.05;77.35;;;10.50;99.90;;;;;;6220281;23;20318;-70
2023/12/31 15:40:21;;;;;;;110.10;75.55;;;10.50;99.90;;;;;;6246675;23;20303;-69
2023/12/31 15:42:47;;;;;;;107.95;72.07;;;10.50;99.90;;;;;;6247161;23;20035;-69
2023/12/31 15:45:13;;;;;;;109.78;69.50;;;10.50;99.90;;;;;;6247192;23;20030;-70
2023/12/31 15:47:38;;;;;;;104.40;70.35;;;10.50;99.90;;;;;;6247038;23;20004;-70
2023/12/31 15:50:05;;;;;;;101.75;66.68;;;10.50;99.90;;;;;;6246806;23;19996;-69
2023/12/31 15:52:30;;;;;;;99.60;67.45;;;10.50;99.90;;;;;;6247246;23;20406;-70
2023/12/31 15:54:56;;;;;;;112.68;69.47;;;10.50;99.90;;;;;;6246456;23;20012;-70